Airfield :
LOGIN :

Register | Disclaimer

   EN    FR    IT 

 










Legend :    VFR   Marginal VFR   IFR   Intensive IFR   Very Intensive IFR
Visi :
Ceiling :
>= 8 km
>= 3000ft
5 to 8 km
1000 to 3000 ft
1500m to 5 km
500 to 1000 ft
800 to 1500m
200 to 500 ft
< 800m
< 200 ft
Symbols :   Thunderstorms  Fog  Heavy snow  Heavy precipitations  Wind > 20 kt
SIGMETs :     Misc.  Thunderstorms  Icing  Turbulence  Mountain Waves  Volcanic Ashes







- Airport Elevation : 12 ft
- IATA code : NCE
- Download approach charts


LFMN - Nice

CURRENT METAR :
  • 222330Z 07007KT CAVOK 24/20 Q1017 NOSIG

EXPIRED METARs :
  • 222300Z 07007KT CAVOK 24/21 Q1017 NOSIG
  • 222230Z 07007KT CAVOK 25/20 Q1018 NOSIG
  • 222200Z 06007KT CAVOK 25/20 Q1017 NOSIG
  • 222130Z 06006KT CAVOK 24/20 Q1017 NOSIG
  • 222100Z 06004KT CAVOK 24/21 Q1017 NOSIG

TAF AMD TAF LFMN
Valid from the 22 at 21:00 until the 24 at 03:00 UTC


222020Z 2221/2403 VRB02KT 9999 FEW030 BKN270
TEMPO 2221/2312 BKN014
BECMG 2300/2302 08015KT
BECMG 2312/2314 CAVOK
BECMG 2314/2315 18005KT
PROB30
TEMPO 2315/2320 FEW040CB SCT130
BECMG 2318/2320 VRB03KT
ATIS : +33 4 93 17 21 16
No reported NOTAMs for that airfield.



MET'MAP, your aeronautical weather chart ! - Copyright ORBIFLY December 2007 - Disclaimer

ORBIFLY MET'MAP TEAM :

Programming & Development : Alexandra Zaïnal
Concept & Development : Baudouin d'Aumeries
Co-Development & Prog : Marc-Olivier Méhu
Technical & hardware support : Manuel Goepfert

Contact : metmap@orbifly.com




SOURCES & CREDITS :

   NOAA